Accueil
METAR-TAF:

METAR-TAF

Aéroports :

Aéroport de Shoreham

Brighton, Angleterre

latitude: 50-50N, longitude: 000-17W, altitude: 2 m

Observation

Le bulletin a été fait il y a 32 minutes, à 14:50 UTC
Vent 14 kt de sud/sud-ouest
Température 18°C
Humidité 88%
Pression 1012 hPa
Visibilité 10 km ou plus
Nuages fragmentés à une hauteur de 3100 ft

METAR: EGKA 191450Z 21014KT 9999 BKN031 18/16 Q1012

Heure: 16:22 (15:22 UTC)

Prévision

Le bulletin a été fait il y a 1 heure et 17 minutes, à 14:05 UTC
Prévision valable du 19 à 15 UTC au 19 à 19 UTC
Vent 12 kt de sud
Visibilité 10 km ou plus
Nuages épars à une hauteur de 2000 ft
Probabilité 40% :
Temporairement
du 19 à 15 UTC au 19 à 19 UTC
Vent 15 kt de sud avec des rafales jusqu'à 25 kt
Visibilité: 6000 m

TAF: EGKA 191405Z 1915/1919 19012KT 9999 SCT020 PROB40 TEMPO 1915/1919 19015G25KT 6000

Observations et prévisions météorologiques de plus de 4000 aéroports (messages METAR et TAF).

Les stations disponibles sont représentées par des disques jaunes et rouges sur la carte.

Passer la souris dessus pour voir le nom de la station.

Cliquer dessus pour voir les observations et prévisions météorologiques.

Pour changer de carte: cliquez sur les boutons verts avec une croix noire pour zoomer, sur le bouton vert avec un tiret pour effectuer un zoom arrière, ou sur les flèches vertes pour les cartes adjacentes.


METAR-TAF: